Time;durP1;ratioP1;P1;durP2;ratioP2;P2;SDS_P1;SDS_P2;PMS_P1;PMS_P2;Temp;Humidity;BMP_temperature;BMP_pressure;BME280_temperature;BME280_humidity;BME280_pressure;Samples;Min_cycle;Max_cycle;Signal;HPM_P1;HPM_P2
2022/03/30 00:00:56;;;;;;;8.88;3.45;;;0.20;1.00;;;0.18;66.03;98054.78;5061489;27;129605;-70
2022/03/30 00:03:25;;;;;;;11.85;3.92;;;0.20;1.00;;;0.23;65.69;98049.38;5046251;27;118378;-70
2022/03/30 00:05:53;;;;;;;6.05;3.08;;;0.30;1.00;;;0.29;65.33;98055.50;5061962;27;114995;-69
2022/03/30 00:08:21;;;;;;;5.38;2.83;;;0.30;1.00;;;0.34;65.23;98053.59;5061160;27;129450;-68
2022/03/30 00:10:52;;;;;;;5.93;3.38;;;0.40;1.00;;;0.38;65.04;98058.38;5061735;27;129529;-68
2022/03/30 00:13:21;;;;;;;6.78;3.30;;;0.40;1.00;;;0.39;64.86;98052.75;5061487;27;119044;-68
2022/03/30 00:15:49;;;;;;;8.63;3.15;;;0.40;1.00;;;0.37;65.03;98052.22;5061639;27;115124;-67
2022/03/30 00:18:18;;;;;;;8.13;2.67;;;0.40;1.00;;;0.38;64.82;98047.69;5045545;27;128796;-68
2022/03/30 00:20:47;;;;;;;7.00;3.08;;;0.40;1.00;;;0.37;64.97;98049.53;5061127;27;129481;-69
2022/03/30 00:23:15;;;;;;;5.13;2.47;;;0.30;1.00;;;0.37;64.63;98057.56;5029285;27;117983;-69
2022/03/30 00:25:44;;;;;;;5.63;2.88;;;0.30;1.00;;;0.38;64.44;98059.16;5029550;27;114571;-69
2022/03/30 00:28:14;;;;;;;6.68;2.88;;;0.30;1.00;;;0.39;64.75;98049.25;5060893;27;129734;-70
2022/03/30 00:30:43;;;;;;;8.15;2.60;;;0.30;1.00;;;0.38;64.59;98050.34;5045729;27;129222;-71
2022/03/30 00:33:11;;;;;;;7.13;3.05;;;0.30;1.00;;;0.40;64.31;98050.88;5061579;27;118779;-69
2022/03/30 00:35:40;;;;;;;8.48;3.30;;;0.30;1.00;;;0.43;64.55;98044.97;5046488;27;113784;-68
2022/03/30 00:38:09;;;;;;;10.15;3.47;;;0.30;1.00;;;0.42;64.83;98046.03;5045279;27;129606;-68
2022/03/30 00:40:37;;;;;;;7.25;3.00;;;0.30;1.00;;;0.43;64.76;98050.31;5062759;27;129171;-69
2022/03/30 00:43:06;;;;;;;9.05;3.30;;;0.30;1.00;;;0.45;64.64;98050.81;5061326;27;119194;-68
2022/03/30 00:45:36;;;;;;;6.80;3.50;;;0.40;1.00;;;0.45;64.47;98051.63;5061429;27;115802;-70
2022/03/30 00:48:06;;;;;;;6.28;2.97;;;0.30;1.00;;;0.45;64.41;98048.97;5060129;27;130292;-69
2022/03/30 00:50:34;;;;;;;8.18;3.65;;;0.30;1.00;;;0.43;64.68;98051.09;5060787;27;130691;-69
2022/03/30 00:53:03;;;;;;;7.72;3.88;;;0.30;1.00;;;0.40;65.03;98056.19;5061198;27;118770;-70
2022/03/30 00:55:32;;;;;;;6.47;3.42;;;0.30;1.00;;;0.38;65.38;98053.03;5061420;27;115283;-69
2022/03/30 00:58:01;;;;;;;8.50;3.00;;;0.20;1.00;;;0.37;65.50;98056.75;5060348;27;130447;-70
2022/03/30 01:00:30;;;;;;;8.98;3.60;;;0.20;1.00;;;0.31;65.79;98051.47;5060611;27;129463;-69
2022/03/30 01:03:00;;;;;;;8.10;3.53;;;0.20;1.00;;;0.19;66.55;98061.72;5061039;27;119109;-70
2022/03/30 01:05:30;;;;;;;5.63;2.95;;;0.10;1.00;;;0.08;67.10;98055.66;5060757;27;114674;-70
2022/03/30 01:07:59;;;;;;;8.40;3.35;;;0.10;1.00;;;-0.01;67.48;98057.31;5060114;27;130202;-70
2022/03/30 01:10:28;;;;;;;10.52;3.90;;;0.00;1.00;;;-0.12;68.06;98064.56;5045601;27;128742;-69
2022/03/30 01:12:57;;;;;;;9.57;4.43;;;0.00;1.00;;;-0.18;67.99;98060.34;5045445;27;118350;-70
2022/03/30 01:15:26;;;;;;;8.48;3.60;;;-0.10;1.00;;;-0.21;68.39;98058.22;5045854;27;114502;-69
2022/03/30 01:17:54;;;;;;;7.25;3.35;;;-0.10;1.00;;;-0.22;68.04;98064.63;5061526;27;129857;-70
2022/03/30 01:20:25;;;;;;;7.43;3.50;;;-0.10;1.00;;;-0.25;68.51;98057.19;5044931;27;128978;-69
2022/03/30 01:22:55;;;;;;;9.10;3.72;;;-0.20;1.00;;;-0.28;68.83;98057.72;5060439;27;118687;-69
2022/03/30 01:25:24;;;;;;;12.30;3.45;;;-0.20;1.00;;;-0.35;68.60;98057.25;5061112;27;115228;-68
2022/03/30 01:27:53;;;;;;;8.57;3.45;;;-0.20;1.00;;;-0.39;68.75;98060.47;5045425;27;129144;-68
2022/03/30 01:33:08;;;;;;;6.60;3.22;;;-0.30;1.00;;;-0.31;69.29;98047.63;5060534;27;119982;-68
2022/03/30 01:35:37;;;;;;;9.05;3.33;;;-0.20;1.00;;;-0.27;69.32;98038.00;5045546;27;115587;-70
2022/03/30 01:38:07;;;;;;;6.30;3.22;;;-0.30;1.00;;;-0.22;69.06;98040.63;5060329;27;130468;-70
2022/03/30 01:40:37;;;;;;;6.68;3.30;;;-0.20;1.00;;;-0.20;69.29;98038.50;5060302;27;129794;-68
2022/03/30 01:43:06;;;;;;;8.35;3.40;;;-0.30;1.00;;;-0.18;69.58;98052.34;5060614;27;118967;-67
2022/03/30 01:45:35;;;;;;;9.15;4.38;;;-0.20;1.00;;;-0.17;69.59;98040.63;5028661;27;114280;-68
2022/03/30 01:48:04;;;;;;;9.43;4.38;;;-0.20;1.00;;;-0.25;72.64;98047.31;5060059;27;130278;-69
2022/03/30 01:50:33;;;;;;;8.60;4.10;;;-0.30;1.00;;;-0.30;74.36;98046.56;5060235;27;130179;-70
2022/03/30 01:53:01;;;;;;;8.00;3.85;;;-0.40;1.00;;;-0.30;74.68;98049.22;5060241;27;119101;-69
2022/03/30 01:55:31;;;;;;;7.65;4.03;;;-0.40;1.00;;;-0.40;76.01;98045.53;5062403;27;113891;-69
2022/03/30 01:58:01;;;;;;;7.97;4.25;;;-0.50;1.00;;;-0.39;75.92;98049.81;5059857;27;131048;-69
2022/03/30 02:00:30;;;;;;;7.55;4.30;;;-0.50;1.00;;;-0.40;75.63;98048.19;5060909;27;129382;-67
2022/03/30 02:02:59;;;;;;;7.60;4.13;;;-0.50;1.00;;;-0.43;76.26;98046.09;5063757;27;118870;-68
2022/03/30 02:05:28;;;;;;;10.77;4.93;;;-0.60;1.00;;;-0.50;77.64;98050.13;5064013;27;115807;-69
2022/03/30 02:07:57;;;;;;;12.38;4.22;;;-0.60;1.00;;;-0.52;77.09;98045.06;5048256;27;129647;-69
2022/03/30 02:10:38;;;;;;;9.52;4.30;;;-0.70;1.00;;;-0.51;76.64;98052.00;5063464;27;130341;-69
2022/03/30 02:13:07;;;;;;;10.10;4.70;;;-0.60;1.00;;;-0.52;77.76;98053.06;5063567;27;119586;-68
2022/03/30 02:15:35;;;;;;;11.75;4.50;;;-0.60;1.00;;;-0.55;78.69;98053.59;5064093;27;115381;-69
2022/03/30 02:18:06;;;;;;;11.18;5.22;;;-0.70;1.00;;;-0.50;77.91;98050.13;5047657;27;130159;-68
2022/03/30 02:20:35;;;;;;;7.97;4.53;;;-0.70;1.00;;;-0.54;77.63;98055.22;5063043;27;129858;-69
2022/03/30 02:23:03;;;;;;;8.40;4.00;;;-0.60;1.00;;;-0.56;77.63;98057.34;5063525;27;118970;-69
2022/03/30 02:25:32;;;;;;;8.07;3.78;;;-0.60;1.00;;;-0.65;78.08;98059.00;5063564;27;116511;-68
2022/03/30 02:28:03;;;;;;;8.48;4.03;;;-0.70;1.00;;;-0.77;77.95;98057.41;5030900;27;129818;-69
2022/03/30 02:30:32;;;;;;;7.18;3.90;;;-0.80;1.00;;;-0.91;78.83;98059.06;5047810;27;129106;-68
2022/03/30 02:33:01;;;;;;;9.32;4.22;;;-0.80;1.00;;;-1.03;79.60;98059.38;5031963;27;118619;-68
2022/03/30 02:35:31;;;;;;;7.18;3.83;;;-0.80;1.00;;;-1.09;79.71;98061.25;5063539;27;115129;-69
2022/03/30 02:38:00;;;;;;;8.48;3.90;;;-0.90;1.00;;;-1.15;80.50;98053.56;5062932;27;129916;-69
2022/03/30 02:40:29;;;;;;;11.68;4.22;;;-0.90;1.00;;;-1.22;80.81;98056.47;5044718;27;129440;-70
2022/03/30 02:42:57;;;;;;;8.52;4.00;;;-1.00;1.00;;;-1.25;81.19;98057.03;5048247;27;118771;-69
2022/03/30 02:45:27;;;;;;;9.30;4.18;;;-1.00;1.00;;;-1.26;81.33;98055.44;5063086;27;114914;-69
2022/03/30 02:50:44;;;;;;;6.80;3.80;;;-1.10;1.00;;;-1.25;80.92;98062.34;5044178;27;130294;-70
2022/03/30 02:53:13;;;;;;;8.32;3.83;;;-1.10;1.00;;;-1.23;80.68;98059.41;5062967;27;119380;-70
2022/03/30 02:55:41;;;;;;;7.32;4.30;;;-1.10;1.00;;;-1.18;80.70;98062.88;5031288;27;114206;-70
2022/03/30 02:58:10;;;;;;;9.00;3.85;;;-1.20;1.00;;;-1.17;80.11;98064.47;5062662;27;130569;-70
2022/03/30 03:00:42;;;;;;;8.25;4.85;;;-1.20;1.00;;;-1.19;80.18;98063.94;5062472;27;129350;-70
2022/03/30 03:03:11;;;;;;;8.85;3.83;;;-1.20;1.00;;;-1.19;80.08;98063.94;5062671;27;118949;-69
2022/03/30 03:05:41;;;;;;;8.85;4.15;;;-1.20;1.00;;;-1.23;80.36;98065.56;5065159;27;114872;-69
2022/03/30 03:08:12;;;;;;;9.32;4.00;;;-1.30;1.00;;;-1.22;79.94;98059.16;5062206;27;130273;-69
2022/03/30 03:10:45;;;;;;;7.95;4.35;;;-1.30;1.00;;;-1.23;80.03;98060.22;5061851;27;129095;-69
2022/03/30 03:13:16;;;;;;;10.77;4.05;;;-1.30;1.00;;;-1.28;80.16;98057.56;5062436;27;118673;-70
2022/03/30 03:15:47;;;;;;;6.70;3.80;;;-1.30;1.00;;;-1.30;80.17;98065.03;5062866;27;116295;-68
2022/03/30 03:18:16;;;;;;;9.05;4.45;;;-1.30;1.00;;;-1.32;80.41;98056.53;5064160;27;129713;-70
2022/03/30 03:20:46;;;;;;;9.75;3.92;;;-1.30;1.00;;;-1.32;80.33;98067.16;5062096;27;130176;-70
2022/03/30 03:23:16;;;;;;;9.15;4.05;;;-1.30;1.00;;;-1.34;80.57;98064.78;5062619;27;118626;-70
2022/03/30 03:25:45;;;;;;;9.00;4.38;;;-1.30;1.00;;;-1.33;80.53;98060.25;5047569;27;114360;-69
2022/03/30 03:28:15;;;;;;;8.23;4.20;;;-1.30;1.00;;;-1.32;80.72;98056.53;5046996;27;129490;-70
2022/03/30 03:30:46;;;;;;;9.93;4.28;;;-1.30;1.00;;;-1.35;81.29;98062.38;5062081;27;130819;-69
2022/03/30 03:33:15;;;;;;;7.82;3.78;;;-1.30;1.00;;;-1.31;81.05;98058.09;5047275;27;119139;-70
2022/03/30 03:35:43;;;;;;;9.32;3.90;;;-1.30;1.00;;;-1.30;80.97;98070.34;5062690;27;115558;-70
2022/03/30 03:38:12;;;;;;;8.73;4.13;;;-1.30;1.00;;;-1.30;80.91;98065.03;5061833;27;130532;-69
2022/03/30 03:40:41;;;;;;;8.63;4.30;;;-1.30;1.00;;;-1.34;81.60;98070.09;5043291;27;130287;-70
2022/03/30 03:43:10;;;;;;;9.57;4.03;;;-1.30;1.00;;;-1.32;81.52;98067.16;5047290;27;117788;-70
2022/03/30 03:45:38;;;;;;;13.02;4.45;;;-1.30;1.00;;;-1.30;81.35;98059.69;5047050;27;114464;-68
2022/03/30 03:48:10;;;;;;;8.13;3.95;;;-1.30;1.00;;;-1.28;81.37;98068.22;5061380;27;130707;-67
2022/03/30 03:50:38;;;;;;;7.55;3.70;;;-1.30;1.00;;;-1.27;81.10;98064.50;5061528;27;129599;-66
2022/03/30 03:53:07;;;;;;;10.13;4.82;;;-1.30;1.00;;;-1.28;81.60;98060.22;5046754;27;117852;-67
2022/03/30 03:55:36;;;;;;;9.45;4.57;;;-1.30;1.00;;;-1.30;81.65;98062.38;5062266;27;115335;-66
2022/03/30 03:58:07;;;;;;;9.50;4.40;;;-1.30;1.00;;;-1.33;81.61;98062.91;5063221;27;129331;-66
2022/03/30 04:00:36;;;;;;;11.10;4.50;;;-1.30;1.00;;;-1.31;81.48;98058.09;5046464;27;129433;-67
2022/03/30 04:03:04;;;;;;;8.52;5.28;;;-1.40;1.00;;;-1.31;81.55;98056.25;5061417;27;118716;-67
2022/03/30 04:05:34;;;;;;;8.93;4.40;;;-1.40;1.00;;;-1.25;81.55;98062.34;5046691;27;114992;-68
2022/03/30 04:08:04;;;;;;;8.55;4.80;;;-1.40;1.00;;;-1.19;80.88;98069.25;5061171;27;131252;-67
2022/03/30 04:10:33;;;;;;;10.02;4.35;;;-1.30;1.00;;;-1.11;80.93;98063.41;5068794;27;129505;-66
2022/03/30 04:13:02;;;;;;;9.48;4.82;;;-1.30;1.00;;;-1.03;80.90;98069.22;5080485;27;118704;-66
2022/03/30 04:15:31;;;;;;;9.90;5.30;;;-1.20;1.00;;;-1.00;80.81;98074.00;5082089;27;114927;-66
2022/03/30 04:18:00;;;;;;;9.93;5.35;;;-1.10;1.00;;;-0.98;80.72;98088.66;5081826;27;129843;-67
2022/03/30 04:20:29;;;;;;;15.35;7.15;;;-1.10;1.00;;;-0.99;80.82;98087.06;5081937;27;129567;-68
2022/03/30 04:22:59;;;;;;;11.57;6.00;;;-1.20;1.00;;;-0.90;81.38;98089.97;5081332;27;118936;-67
2022/03/30 04:25:28;;;;;;;13.98;5.85;;;-1.10;1.00;;;-0.86;80.89;98096.34;5065911;27;115344;-67
2022/03/30 04:27:57;;;;;;;11.77;6.03;;;-1.00;1.00;;;-0.80;81.29;98094.47;5080197;27;130547;-68
2022/03/30 04:30:25;;;;;;;11.65;6.40;;;-1.00;1.00;;;-0.75;81.01;98097.94;5062779;27;129383;-68
2022/03/30 04:32:54;;;;;;;11.05;5.43;;;-0.90;1.00;;;-0.69;80.75;98106.69;5081541;27;118911;-67
2022/03/30 04:35:25;;;;;;;23.10;12.65;;;-0.90;1.00;;;-0.73;80.48;98109.09;5081577;27;114947;-67
2022/03/30 04:37:55;;;;;;;25.98;14.18;;;-0.80;1.00;;;-0.77;80.64;98109.91;5065743;27;129874;-68
2022/03/30 04:40:28;;;;;;;58.65;27.30;;;-0.90;1.00;;;-0.79;81.05;98107.53;5048950;27;129575;-66
2022/03/30 04:42:57;;;;;;;43.58;18.65;;;-0.90;1.00;;;-0.77;81.09;98113.38;5062808;27;118957;-67
2022/03/30 04:45:25;;;;;;;19.98;9.48;;;-0.90;1.00;;;-0.80;81.07;98116.56;5081669;27;116255;-68
2022/03/30 04:47:55;;;;;;;21.38;9.48;;;-0.90;1.00;;;-0.74;80.84;98110.16;5081076;27;129430;-73
2022/03/30 04:50:23;;;;;;;15.27;7.32;;;-0.90;1.00;;;-0.57;80.49;98109.06;5081095;27;129477;-65
2022/03/30 04:52:52;;;;;;;11.02;5.43;;;-0.70;1.00;;;-0.46;79.43;98112.47;5081601;27;119697;-67
2022/03/30 04:55:21;;;;;;;13.48;6.13;;;-0.70;1.00;;;-0.38;78.50;98112.69;5081493;27;115769;-67
2022/03/30 04:57:53;;;;;;;15.18;5.55;;;-0.60;1.00;;;-0.18;78.13;98116.34;5065877;27;130164;-67
2022/03/30 05:00:21;;;;;;;9.73;5.50;;;-0.40;1.00;;;0.01;77.76;98110.38;5080682;27;130375;-68
2022/03/30 05:02:50;;;;;;;13.30;5.63;;;-0.30;1.00;;;0.11;77.02;98119.13;5081544;27;118711;-67
2022/03/30 05:05:18;;;;;;;11.73;5.63;;;-0.10;1.00;;;0.23;76.09;98116.09;5065320;27;114217;-68
2022/03/30 05:07:47;;;;;;;13.13;5.88;;;-0.10;1.00;;;0.32;76.07;98113.63;5079903;27;131185;-67
2022/03/30 05:10:16;;;;;;;11.00;5.97;;;-0.10;1.00;;;0.39;75.81;98122.16;5080860;27;129664;-68
2022/03/30 05:12:45;;;;;;;9.65;5.18;;;0.00;1.00;;;0.56;75.19;98119.06;5081299;27;118719;-68
2022/03/30 05:15:15;;;;;;;11.63;5.53;;;0.20;1.00;;;0.73;74.92;98113.31;5049313;27;114089;-67
2022/03/30 05:17:46;;;;;;;11.65;5.28;;;0.30;1.00;;;1.00;73.26;98120.81;5082182;27;129618;-65
2022/03/30 05:20:17;;;;;;;9.65;5.25;;;0.50;1.00;;;1.14;72.51;98125.47;5081187;27;130695;-66
2022/03/30 05:22:46;;;;;;;9.10;4.43;;;0.50;1.00;;;1.42;71.80;98130.00;5081237;27;119048;-66
2022/03/30 05:25:15;;;;;;;10.23;5.03;;;0.80;1.00;;;1.73;70.04;98124.28;5066328;27;114385;-66
2022/03/30 05:27:44;;;;;;;11.30;4.53;;;1.00;1.00;;;2.00;69.45;98125.56;5080767;27;129770;-65
2022/03/30 05:30:13;;;;;;;9.68;4.53;;;1.20;1.00;;;2.23;67.83;98133.78;5083845;27;130583;-65
2022/03/30 05:32:45;;;;;;;10.10;4.10;;;1.40;1.00;;;2.42;66.86;98128.44;5081158;27;119357;-65
2022/03/30 05:35:15;;;;;;;9.95;4.70;;;1.50;1.00;;;2.63;66.33;98134.28;5068832;27;113986;-66
2022/03/30 05:37:48;;;;;;;10.45;4.47;;;1.70;1.00;;;2.78;65.05;98122.53;5069031;27;128541;-66
2022/03/30 05:40:18;;;;;;;9.80;4.97;;;1.80;1.00;;;2.81;64.84;98120.03;5084475;27;129477;-67
2022/03/30 05:42:47;;;;;;;11.93;4.95;;;1.80;1.00;;;3.04;63.96;98125.56;5084565;27;118841;-64
2022/03/30 05:45:15;;;;;;;9.65;4.95;;;2.00;1.00;;;3.15;63.63;98124.28;5084755;27;115859;-65
2022/03/30 05:47:45;;;;;;;10.55;4.82;;;2.10;1.00;;;3.22;63.05;98127.34;5068933;27;129214;-66
2022/03/30 05:50:14;;;;;;;8.93;4.45;;;2.20;1.00;;;3.37;62.59;98128.97;5052070;27;128396;-67
2022/03/30 05:52:43;;;;;;;9.18;4.68;;;2.40;1.00;;;3.34;61.72;98131.44;5084775;27;118902;-65
2022/03/30 05:55:11;;;;;;;9.95;5.22;;;2.30;1.00;;;3.46;61.31;98128.25;5069381;27;114427;-66
2022/03/30 05:57:40;;;;;;;8.07;4.47;;;2.40;1.00;;;3.45;60.82;98127.47;5084249;27;130148;-66
2022/03/30 06:00:11;;;;;;;10.75;5.45;;;2.40;1.00;;;3.45;59.79;98127.47;5069184;27;129522;-67
2022/03/30 06:02:42;;;;;;;15.27;8.50;;;2.40;1.00;;;3.53;60.20;98121.41;5084707;27;118997;-66
2022/03/30 06:05:12;;;;;;;8.77;4.57;;;2.50;1.00;;;3.51;59.35;98128.97;5084645;27;115117;-67
2022/03/30 06:07:42;;;;;;;12.82;7.22;;;2.40;1.00;;;3.56;59.63;98123.50;5083763;27;130247;-66
2022/03/30 06:10:10;;;;;;;16.63;8.90;;;2.40;1.00;;;3.55;59.81;98129.97;5065389;27;130090;-67
2022/03/30 06:12:39;;;;;;;10.30;4.85;;;2.50;1.00;;;3.34;60.28;98126.09;5084419;27;118903;-67
2022/03/30 06:15:10;;;;;;;11.63;5.38;;;2.40;1.00;;;3.19;60.78;98133.31;5084433;27;115082;-67
2022/03/30 06:17:38;;;;;;;9.93;5.00;;;2.30;1.00;;;3.02;61.55;98136.56;5077542;27;129989;-69
2022/03/30 06:20:10;;;;;;;10.45;5.68;;;2.10;1.00;;;3.10;62.00;98132.41;5082849;27;130104;-70
2022/03/30 06:22:41;;;;;;;10.35;5.85;;;2.10;1.00;;;3.35;61.83;98133.03;5084267;27;118843;-70
2022/03/30 06:25:12;;;;;;;16.92;8.40;;;2.40;1.00;;;3.54;60.53;98133.75;5084457;27;115058;-69
2022/03/30 06:27:42;;;;;;;14.77;9.23;;;2.50;1.00;;;3.72;59.64;98131.25;5083567;27;129839;-69
2022/03/30 06:30:13;;;;;;;8.35;4.75;;;2.70;1.00;;;3.66;59.52;98137.81;5083563;27;129933;-70
2022/03/30 06:32:42;;;;;;;8.55;4.38;;;2.50;1.00;;;3.88;58.73;98137.91;5083216;27;119096;-70
2022/03/30 06:35:12;;;;;;;11.15;4.50;;;2.70;1.00;;;3.72;58.45;98131.25;5084129;27;116381;-69
2022/03/30 06:37:42;;;;;;;8.18;3.72;;;2.70;1.00;;;3.83;58.78;98140.66;5067968;27;129249;-70
2022/03/30 06:40:12;;;;;;;7.35;3.60;;;2.70;1.00;;;3.89;57.65;98147.50;5083196;27;129362;-68
2022/03/30 06:42:41;;;;;;;6.80;3.30;;;2.80;1.00;;;3.98;56.03;98139.56;5083914;27;118747;-68
2022/03/30 06:45:11;;;;;;;6.32;3.25;;;2.90;1.00;;;4.14;55.63;98132.78;5083760;27;115531;-68
2022/03/30 06:47:40;;;;;;;7.00;3.30;;;3.00;1.00;;;3.98;55.02;98133.41;5064399;27;130938;-66
2022/03/30 06:50:11;;;;;;;7.95;3.55;;;2.90;1.00;;;3.65;54.99;98139.69;5083412;27;129274;-66
2022/03/30 06:52:42;;;;;;;7.82;3.58;;;2.60;1.00;;;3.60;55.73;98135.22;5083558;27;119337;-66
2022/03/30 06:55:12;;;;;;;7.82;4.00;;;2.70;1.00;;;3.67;56.10;98142.09;5083675;27;115170;-66
2022/03/30 06:57:41;;;;;;;8.32;4.22;;;2.80;1.00;;;3.56;55.61;98154.91;5082771;27;130469;-66
2022/03/30 07:00:12;;;;;;;7.13;3.65;;;2.60;1.00;;;3.66;56.16;98148.53;5068028;27;128698;-67
2022/03/30 07:02:41;;;;;;;7.20;4.00;;;2.70;1.00;;;3.75;55.59;98147.53;5051284;27;117748;-68
2022/03/30 07:05:10;;;;;;;9.25;5.47;;;2.90;1.00;;;3.82;55.26;98147.16;5081599;27;115095;-67
2022/03/30 07:10:27;;;;;;;7.77;2.70;;;3.10;1.00;;;3.83;53.50;98148.72;5062204;27;129913;-68
2022/03/30 07:12:56;;;;;;;5.22;2.50;;;3.00;1.00;;;4.09;52.74;98153.56;5062556;27;118846;-67
2022/03/30 07:15:25;;;;;;;6.95;2.63;;;3.20;1.00;;;4.12;51.47;98152.97;5047708;27;115009;-68
2022/03/30 07:17:56;;;;;;;5.97;2.70;;;3.20;1.00;;;4.07;51.01;98147.72;5064962;27;129511;-67
2022/03/30 07:20:26;;;;;;;5.78;2.58;;;3.20;1.00;;;4.02;50.69;98158.53;5047018;27;128761;-67
2022/03/30 07:22:57;;;;;;;7.38;2.60;;;3.10;1.00;;;4.24;50.12;98163.16;5044124;27;118790;-66
2022/03/30 07:25:28;;;;;;;5.93;2.83;;;3.40;1.00;;;4.49;51.05;98154.56;5062646;27;115963;-67
2022/03/30 07:28:02;;;;;;;7.45;3.15;;;3.60;1.00;;;4.28;51.10;98159.56;5062041;27;130493;-67
2022/03/30 07:30:32;;;;;;;5.40;2.35;;;3.50;1.00;;;4.58;50.51;98151.94;5061909;27;129727;-67
2022/03/30 07:33:01;;;;;;;7.07;2.88;;;3.60;1.00;;;4.37;50.99;98156.19;5062192;27;119492;-68
2022/03/30 07:35:32;;;;;;;5.88;2.80;;;3.50;1.00;;;4.31;51.69;98168.94;5047271;27;113525;-67
2022/03/30 07:38:01;;;;;;;5.32;2.60;;;3.40;1.00;;;4.27;51.40;98163.38;5064976;27;129485;-68
2022/03/30 07:40:32;;;;;;;7.15;2.70;;;3.30;1.00;;;4.40;51.25;98167.13;5062229;27;129335;-67
2022/03/30 07:43:00;;;;;;;6.03;2.67;;;3.40;1.00;;;4.78;50.60;98172.13;5062339;27;118698;-68
2022/03/30 07:45:30;;;;;;;6.28;3.08;;;3.80;1.00;;;4.97;50.08;98169.28;5062319;27;115312;-67
2022/03/30 07:47:59;;;;;;;6.32;2.70;;;4.00;1.00;;;5.15;49.28;98164.78;5061607;27;130390;-67
2022/03/30 07:50:28;;;;;;;5.55;2.83;;;4.20;1.00;;;5.02;48.37;98174.53;5046881;27;128593;-67
2022/03/30 07:52:56;;;;;;;5.28;2.20;;;4.00;1.00;;;4.90;49.07;98179.66;5047037;27;118610;-68
2022/03/30 07:55:25;;;;;;;4.68;2.45;;;3.90;1.00;;;5.17;48.64;98167.16;5062183;27;115102;-68
2022/03/30 07:57:56;;;;;;;5.03;3.08;;;4.10;1.00;;;5.29;49.08;98175.47;5060175;27;129934;-67
2022/03/30 08:00:26;;;;;;;5.40;2.70;;;4.20;1.00;;;5.34;48.38;98175.31;5061714;27;129530;-68
2022/03/30 08:02:55;;;;;;;5.65;2.72;;;4.10;1.00;;;5.64;47.35;98170.25;5062076;27;119210;-68
2022/03/30 08:05:23;;;;;;;5.68;3.00;;;4.40;1.00;;;5.75;46.89;98171.56;5047105;27;114518;-68
2022/03/30 08:07:52;;;;;;;8.15;3.63;;;4.50;1.00;;;5.99;46.38;98170.38;5061656;27;129630;-66
2022/03/30 08:10:21;;;;;;;9.88;4.68;;;4.60;1.00;;;6.16;46.83;98174.22;5042901;27;129764;-67
2022/03/30 08:12:49;;;;;;;7.20;3.17;;;4.80;1.00;;;5.99;46.42;98175.75;5061770;27;118934;-67
2022/03/30 08:15:21;;;;;;;5.93;3.25;;;4.60;1.00;;;6.00;47.02;98166.59;5047016;27;114712;-67
2022/03/30 08:17:51;;;;;;;6.43;3.58;;;4.70;1.00;;;5.93;46.47;98177.75;5061932;27;130156;-68
2022/03/30 08:23:06;;;;;;;5.47;3.40;;;4.70;1.00;;;6.42;46.19;98172.34;5046808;27;118795;-66
2022/03/30 08:25:35;;;;;;;8.35;3.45;;;4.90;1.00;;;6.82;45.47;98176.78;5029655;27;115547;-67
2022/03/30 08:28:08;;;;;;;6.05;2.90;;;5.30;1.00;;;6.85;43.95;98173.44;5061113;27;129752;-67
2022/03/30 08:30:38;;;;;;;6.45;3.13;;;5.20;1.00;;;7.22;42.79;98181.16;5064106;27;129639;-69
2022/03/30 08:33:07;;;;;;;6.47;3.10;;;5.70;1.00;;;7.81;42.03;98175.09;5075000;27;118435;-68
2022/03/30 08:35:36;;;;;;;7.20;3.03;;;6.20;1.00;;;7.94;40.51;98178.66;5064873;27;115365;-69
2022/03/30 08:38:05;;;;;;;4.82;2.42;;;6.40;1.00;;;7.49;40.67;98175.34;5076161;27;129906;-66
2022/03/30 08:40:34;;;;;;;6.07;2.78;;;5.70;1.00;;;7.57;40.76;98171.03;5078699;27;129386;-69
2022/03/30 08:43:03;;;;;;;5.65;3.00;;;5.80;1.00;;;7.47;41.70;98172.19;5046402;27;117805;-64
2022/03/30 08:45:31;;;;;;;6.57;3.00;;;5.70;1.00;;;7.59;41.56;98173.41;5045999;27;114541;-67
2022/03/30 08:48:02;;;;;;;6.22;3.08;;;5.50;1.00;;;7.83;41.04;98173.63;5045867;27;129033;-69
2022/03/30 08:50:30;;;;;;;6.43;2.65;;;5.70;1.00;;;7.82;40.34;98172.06;5042393;27;129304;-67
2022/03/30 08:53:04;;;;;;;4.50;2.70;;;5.60;1.00;;;7.40;41.11;98165.72;5061149;27;118823;-67
2022/03/30 08:55:33;;;;;;;6.20;2.95;;;5.50;1.00;;;7.49;41.20;98163.78;5061592;27;115095;-66
2022/03/30 08:58:02;;;;;;;5.85;2.72;;;5.60;1.00;;;7.48;40.87;98179.19;5060600;27;129800;-66
2022/03/30 09:00:34;;;;;;;5.15;2.88;;;5.60;1.00;;;7.70;40.51;98174.66;5060869;27;129514;-66
2022/03/30 09:03:07;;;;;;;7.40;2.92;;;5.90;1.00;;;8.19;39.69;98174.22;5045743;27;117549;-67
2022/03/30 09:05:38;;;;;;;5.13;2.78;;;6.30;1.00;;;8.41;38.83;98173.13;5061059;27;115581;-67
2022/03/30 09:08:12;;;;;;;5.35;2.78;;;6.30;1.00;;;8.60;38.14;98168.09;5045856;27;129339;-69
2022/03/30 09:10:43;;;;;;;6.82;2.90;;;6.80;1.00;;;9.04;37.37;98172.31;5041558;27;129887;-66
2022/03/30 09:13:14;;;;;;;8.32;3.00;;;7.20;1.00;;;9.21;37.22;98174.84;5060713;27;118541;-69
2022/03/30 09:15:43;;;;;;;5.60;2.47;;;7.20;1.00;;;8.52;37.78;98171.63;5060799;27;115099;-67
2022/03/30 09:18:15;;;;;;;6.85;3.25;;;5.90;1.00;;;8.39;38.23;98167.25;5044831;27;130929;-68
2022/03/30 09:20:48;;;;;;;10.70;3.30;;;6.00;1.00;;;8.21;38.56;98164.69;5064677;27;102469;-67
2022/03/30 09:23:17;;;;;;;4.40;2.60;;;6.10;1.00;;;8.67;38.25;98166.75;5060828;27;119269;-68
2022/03/30 09:25:47;;;;;;;6.45;3.15;;;6.50;1.00;;;8.72;38.05;98163.84;5060780;27;115053;-67
2022/03/30 09:28:17;;;;;;;5.95;3.00;;;6.60;1.00;;;8.50;38.56;98152.25;5060135;27;129773;-66
2022/03/30 09:30:47;;;;;;;5.75;2.95;;;6.40;1.00;;;8.66;39.10;98162.47;5060186;27;129262;-66
2022/03/30 09:33:21;;;;;;;4.97;2.72;;;6.60;1.00;;;8.89;37.89;98163.69;5059449;27;118446;-67
2022/03/30 09:35:50;;;;;;;7.22;3.53;;;6.80;1.00;;;8.94;38.16;98163.50;5042908;27;115550;-67
2022/03/30 09:38:21;;;;;;;10.95;2.85;;;6.80;1.00;;;8.53;38.06;98170.53;5060717;27;130019;-67
2022/03/30 09:40:55;;;;;;;7.18;3.13;;;6.60;1.00;;;8.46;38.47;98170.25;5045320;27;129574;-67
2022/03/30 09:43:25;;;;;;;8.30;3.63;;;6.40;1.00;;;8.22;38.82;98168.16;5060773;27;118915;-68
2022/03/30 09:46:08;;;;;;;7.20;3.50;;;6.20;1.00;;;7.70;39.97;98169.25;5060756;27;115592;-69
2022/03/30 09:48:49;;;;;;;5.88;3.15;;;5.80;1.00;;;7.65;40.12;98166.72;5059386;27;129824;-68
2022/03/30 09:51:19;;;;;;;9.55;3.83;;;5.80;1.00;;;7.97;39.55;98167.22;5045377;27;128910;-66
2022/03/30 09:53:48;;;;;;;5.93;3.22;;;6.00;1.00;;;8.26;38.94;98169.88;5060356;27;119297;-66
2022/03/30 09:56:19;;;;;;;7.28;3.28;;;6.30;1.00;;;8.23;38.83;98159.72;5060422;27;115881;-67
2022/03/30 09:58:49;;;;;;;6.95;3.25;;;5.70;1.00;;;8.68;38.22;98162.91;5041942;27;130209;-69
2022/03/30 10:01:21;;;;;;;6.65;3.80;;;6.20;1.00;;;9.00;37.73;98167.56;5060135;27;129738;-65
2022/03/30 10:03:53;;;;;;;7.10;3.03;;;6.40;1.00;;;9.12;36.88;98171.44;5060113;27;119029;-67
2022/03/30 10:06:26;;;;;;;6.32;3.22;;;6.50;1.00;;;9.24;36.80;98160.66;5060447;27;115320;-68
2022/03/30 10:08:56;;;;;;;6.38;3.05;;;6.70;1.00;;;9.58;36.35;98169.47;5059976;27;130751;-66
2022/03/30 10:11:27;;;;;;;8.38;4.57;;;7.00;1.00;;;9.80;35.91;98162.06;5059748;27;131067;-67
2022/03/30 10:13:58;;;;;;;7.03;3.60;;;7.20;1.00;;;9.56;36.68;98165.56;5045299;27;117593;-67
2022/03/30 10:16:27;;;;;;;11.70;3.75;;;6.80;1.00;;;9.38;35.29;98162.25;5060565;27;114886;-67
2022/03/30 10:18:58;;;;;;;10.95;3.15;;;6.30;1.00;;;9.38;35.40;98167.66;5043884;27;130106;-67
2022/03/30 10:21:34;;;;;;;6.00;2.53;;;6.10;1.00;;;9.70;34.59;98168.72;5061210;27;129802;-66
2022/03/30 10:24:41;;;;;;;6.72;2.92;;;6.80;1.00;;;9.71;34.16;98159.47;5063711;27;118904;-66
2022/03/30 10:27:18;;;;;;;5.68;2.90;;;6.80;1.00;;;9.29;35.68;98162.34;5048850;27;114723;-68
2022/03/30 10:29:53;;;;;;;6.03;2.88;;;6.10;1.00;;;9.47;34.78;98165.63;5063152;27;129917;-67
2022/03/30 10:32:24;;;;;;;7.50;3.50;;;6.50;1.00;;;9.13;36.10;98162.19;5048151;27;130092;-66
2022/03/30 10:35:06;;;;;;;8.45;3.05;;;6.00;1.00;;;9.16;35.84;98166.94;5063458;27;118761;-68
2022/03/30 10:37:38;;;;;;;5.72;3.10;;;6.20;1.00;;;9.55;35.75;98164.75;5063786;27;115506;-67
2022/03/30 10:40:21;;;;;;;5.70;3.03;;;6.90;1.00;;;9.84;34.24;98158.31;5063147;27;129667;-66
2022/03/30 10:43:03;;;;;;;9.88;3.38;;;7.50;1.00;;;9.37;34.15;98160.69;5062862;27;129576;-67
2022/03/30 10:45:41;;;;;;;8.95;3.33;;;6.20;1.00;;;9.51;34.85;98163.84;5047965;27;118199;-67
2022/03/30 10:48:17;;;;;;;7.20;3.78;;;6.60;1.00;;;9.68;35.55;98152.81;5063365;27;115915;-67